sensor_id;sensor_type;location;lat;lon;timestamp;temperature;humidity
60353;DHT22;46196;52.970;6.954;2023-05-07T00:00:00;12.50;99.90
60353;DHT22;46196;52.970;6.954;2023-05-07T00:02:26;12.50;99.90
60353;DHT22;46196;52.970;6.954;2023-05-07T00:04:52;12.40;99.90
60353;DHT22;46196;52.970;6.954;2023-05-07T00:07:18;12.40;99.90
60353;DHT22;46196;52.970;6.954;2023-05-07T00:09:43;12.40;99.90
60353;DHT22;46196;52.970;6.954;2023-05-07T00:12:09;12.40;99.90
60353;DHT22;46196;52.970;6.954;2023-05-07T00:14:35;12.40;99.90
60353;DHT22;46196;52.970;6.954;2023-05-07T00:17:01;12.40;99.90
60353;DHT22;46196;52.970;6.954;2023-05-07T00:19:27;12.30;99.90
60353;DHT22;46196;52.970;6.954;2023-05-07T00:21:53;12.30;99.90
60353;DHT22;46196;52.970;6.954;2023-05-07T00:24:19;12.30;99.90
60353;DHT22;46196;52.970;6.954;2023-05-07T00:26:45;13.20;99.90
60353;DHT22;46196;52.970;6.954;2023-05-07T00:29:12;12.20;99.90
60353;DHT22;46196;52.970;6.954;2023-05-07T00:31:38;12.20;99.90
60353;DHT22;46196;52.970;6.954;2023-05-07T00:36:29;12.20;99.90
60353;DHT22;46196;52.970;6.954;2023-05-07T00:38:57;12.10;99.90
60353;DHT22;46196;52.970;6.954;2023-05-07T00:41:24;12.10;99.90
60353;DHT22;46196;52.970;6.954;2023-05-07T00:43:50;12.10;99.90
60353;DHT22;46196;52.970;6.954;2023-05-07T00:46:17;11.40;99.90
60353;DHT22;46196;52.970;6.954;2023-05-07T00:48:43;11.00;99.90
60353;DHT22;46196;52.970;6.954;2023-05-07T00:51:10;12.00;99.90
60353;DHT22;46196;52.970;6.954;2023-05-07T00:53:37;12.80;99.90
60353;DHT22;46196;52.970;6.954;2023-05-07T00:56:03;11.90;99.90
60353;DHT22;46196;52.970;6.954;2023-05-07T00:58:29;11.90;99.90
60353;DHT22;46196;52.970;6.954;2023-05-07T01:00:55;12.20;99.90
60353;DHT22;46196;52.970;6.954;2023-05-07T01:03:21;12.80;99.90
60353;DHT22;46196;52.970;6.954;2023-05-07T01:05:48;11.80;99.90
60353;DHT22;46196;52.970;6.954;2023-05-07T01:08:15;11.80;99.90
60353;DHT22;46196;52.970;6.954;2023-05-07T01:10:41;11.00;99.90
60353;DHT22;46196;52.970;6.954;2023-05-07T01:13:09;11.80;99.90
60353;DHT22;46196;52.970;6.954;2023-05-07T01:15:36;11.80;99.90
60353;DHT22;46196;52.970;6.954;2023-05-07T01:18:02;11.70;99.90
60353;DHT22;46196;52.970;6.954;2023-05-07T01:20:28;11.70;99.90
60353;DHT22;46196;52.970;6.954;2023-05-07T01:22:54;13.60;99.90
60353;DHT22;46196;52.970;6.954;2023-05-07T01:25:20;14.00;99.90
60353;DHT22;46196;52.970;6.954;2023-05-07T01:27:46;11.60;99.90
60353;DHT22;46196;52.970;6.954;2023-05-07T01:30:12;11.60;99.90
60353;DHT22;46196;52.970;6.954;2023-05-07T01:35:10;11.60;99.90
60353;DHT22;46196;52.970;6.954;2023-05-07T01:37:37;11.60;99.90
60353;DHT22;46196;52.970;6.954;2023-05-07T01:40:04;11.50;99.90
60353;DHT22;46196;52.970;6.954;2023-05-07T01:42:31;11.50;99.90
60353;DHT22;46196;52.970;6.954;2023-05-07T01:44:57;12.60;99.90
60353;DHT22;46196;52.970;6.954;2023-05-07T01:47:24;10.90;99.90
60353;DHT22;46196;52.970;6.954;2023-05-07T01:49:50;11.40;99.90
60353;DHT22;46196;52.970;6.954;2023-05-07T01:52:16;11.40;99.90
60353;DHT22;46196;52.970;6.954;2023-05-07T01:54:41;11.40;99.90
60353;DHT22;46196;52.970;6.954;2023-05-07T01:57:08;10.60;99.90
60353;DHT22;46196;52.970;6.954;2023-05-07T02:02:00;11.30;99.90
60353;DHT22;46196;52.970;6.954;2023-05-07T02:04:26;10.90;99.90
60353;DHT22;46196;52.970;6.954;2023-05-07T02:06:51;11.20;99.90
60353;DHT22;46196;52.970;6.954;2023-05-07T02:09:19;9.80;99.90
60353;DHT22;46196;52.970;6.954;2023-05-07T02:11:45;11.20;99.90
60353;DHT22;46196;52.970;6.954;2023-05-07T02:14:10;12.50;99.90
60353;DHT22;46196;52.970;6.954;2023-05-07T02:16:36;11.60;99.90
60353;DHT22;46196;52.970;6.954;2023-05-07T02:19:02;11.20;99.90
60353;DHT22;46196;52.970;6.954;2023-05-07T02:21:27;10.40;99.90
60353;DHT22;46196;52.970;6.954;2023-05-07T02:23:53;11.20;99.90
60353;DHT22;46196;52.970;6.954;2023-05-07T02:26:19;11.10;99.90
60353;DHT22;46196;52.970;6.954;2023-05-07T02:28:45;11.10;99.90
60353;DHT22;46196;52.970;6.954;2023-05-07T02:31:10;11.10;99.90
60353;DHT22;46196;52.970;6.954;2023-05-07T02:33:36;11.90;99.90
60353;DHT22;46196;52.970;6.954;2023-05-07T02:36:11;11.20;99.90
60353;DHT22;46196;52.970;6.954;2023-05-07T02:38:37;11.80;99.90
60353;DHT22;46196;52.970;6.954;2023-05-07T02:41:04;10.90;99.90
60353;DHT22;46196;52.970;6.954;2023-05-07T02:43:29;11.00;99.90
60353;DHT22;46196;52.970;6.954;2023-05-07T02:46:05;11.00;99.90
60353;DHT22;46196;52.970;6.954;2023-05-07T02:48:32;10.40;99.90
60353;DHT22;46196;52.970;6.954;2023-05-07T02:50:58;11.20;99.90
60353;DHT22;46196;52.970;6.954;2023-05-07T02:53:25;10.70;99.90
60353;DHT22;46196;52.970;6.954;2023-05-07T02:55:56;11.00;99.90
60353;DHT22;46196;52.970;6.954;2023-05-07T02:58:22;11.00;99.90
60353;DHT22;46196;52.970;6.954;2023-05-07T03:00:48;9.70;99.90
60353;DHT22;46196;52.970;6.954;2023-05-07T03:03:14;11.50;99.90
60353;DHT22;46196;52.970;6.954;2023-05-07T03:05:40;11.80;99.90
60353;DHT22;46196;52.970;6.954;2023-05-07T03:08:06;9.70;99.90
60353;DHT22;46196;52.970;6.954;2023-05-07T03:10:32;11.10;99.90
60353;DHT22;46196;52.970;6.954;2023-05-07T03:12:58;11.00;99.90
60353;DHT22;46196;52.970;6.954;2023-05-07T03:15:23;11.00;99.90
60353;DHT22;46196;52.970;6.954;2023-05-07T03:17:49;10.60;99.90
60353;DHT22;46196;52.970;6.954;2023-05-07T03:20:14;11.90;99.90
60353;DHT22;46196;52.970;6.954;2023-05-07T03:22:40;11.00;99.90
60353;DHT22;46196;52.970;6.954;2023-05-07T03:25:07;9.70;99.90
60353;DHT22;46196;52.970;6.954;2023-05-07T03:27:32;10.90;99.90
60353;DHT22;46196;52.970;6.954;2023-05-07T03:29:58;11.00;99.90
60353;DHT22;46196;52.970;6.954;2023-05-07T03:32:24;10.90;99.90
60353;DHT22;46196;52.970;6.954;2023-05-07T03:34:50;10.90;99.90
60353;DHT22;46196;52.970;6.954;2023-05-07T03:37:16;10.90;99.90
60353;DHT22;46196;52.970;6.954;2023-05-07T03:39:41;10.90;99.90
60353;DHT22;46196;52.970;6.954;2023-05-07T03:42:07;10.90;99.90
60353;DHT22;46196;52.970;6.954;2023-05-07T03:44:33;9.60;99.90
60353;DHT22;46196;52.970;6.954;2023-05-07T03:46:58;10.80;99.90
60353;DHT22;46196;52.970;6.954;2023-05-07T03:54:16;10.80;99.90
60353;DHT22;46196;52.970;6.954;2023-05-07T03:56:41;9.70;99.90
60353;DHT22;46196;52.970;6.954;2023-05-07T03:59:07;12.90;99.90
60353;DHT22;46196;52.970;6.954;2023-05-07T04:01:33;10.80;99.90
60353;DHT22;46196;52.970;6.954;2023-05-07T04:06:25;11.30;99.90
60353;DHT22;46196;52.970;6.954;2023-05-07T04:13:42;10.10;99.90
60353;DHT22;46196;52.970;6.954;2023-05-07T04:16:08;10.80;99.90
60353;DHT22;46196;52.970;6.954;2023-05-07T04:18:34;10.40;99.90
60353;DHT22;46196;52.970;6.954;2023-05-07T04:21:00;11.30;99.90
60353;DHT22;46196;52.970;6.954;2023-05-07T04:23:25;10.70;99.90
60353;DHT22;46196;52.970;6.954;2023-05-07T04:25:51;10.70;99.90
60353;DHT22;46196;52.970;6.954;2023-05-07T04:28:17;10.70;99.90
60353;DHT22;46196;52.970;6.954;2023-05-07T04:30:43;10.70;99.90
60353;DHT22;46196;52.970;6.954;2023-05-07T04:33:09;10.00;99.90
60353;DHT22;46196;52.970;6.954;2023-05-07T04:35:35;9.80;99.90
60353;DHT22;46196;52.970;6.954;2023-05-07T04:38:01;10.60;99.90
60353;DHT22;46196;52.970;6.954;2023-05-07T04:40:27;10.50;99.90
60353;DHT22;46196;52.970;6.954;2023-05-07T04:42:52;10.80;99.90
60353;DHT22;46196;52.970;6.954;2023-05-07T04:45:19;10.70;99.90
60353;DHT22;46196;52.970;6.954;2023-05-07T04:47:45;10.70;99.90
60353;DHT22;46196;52.970;6.954;2023-05-07T04:50:11;12.40;99.90
60353;DHT22;46196;52.970;6.954;2023-05-07T04:52:37;12.40;99.90
60353;DHT22;46196;52.970;6.954;2023-05-07T04:55:02;10.80;99.90
60353;DHT22;46196;52.970;6.954;2023-05-07T04:57:28;10.70;99.90
60353;DHT22;46196;52.970;6.954;2023-05-07T04:59:54;10.80;99.90
60353;DHT22;46196;52.970;6.954;2023-05-07T05:02:20;10.80;99.90
60353;DHT22;46196;52.970;6.954;2023-05-07T05:04:45;11.00;99.90
60353;DHT22;46196;52.970;6.954;2023-05-07T05:07:11;11.50;99.90
60353;DHT22;46196;52.970;6.954;2023-05-07T05:09:36;9.90;99.90
60353;DHT22;46196;52.970;6.954;2023-05-07T05:12:02;10.80;99.90
60353;DHT22;46196;52.970;6.954;2023-05-07T05:14:29;10.40;99.90
60353;DHT22;46196;52.970;6.954;2023-05-07T05:19:20;10.90;99.90
60353;DHT22;46196;52.970;6.954;2023-05-07T05:21:46;11.00;99.90
60353;DHT22;46196;52.970;6.954;2023-05-07T05:24:12;11.00;99.90
60353;DHT22;46196;52.970;6.954;2023-05-07T05:26:37;10.90;99.90
60353;DHT22;46196;52.970;6.954;2023-05-07T05:29:04;11.00;99.90
60353;DHT22;46196;52.970;6.954;2023-05-07T05:31:29;10.30;99.90
60353;DHT22;46196;52.970;6.954;2023-05-07T05:33:55;11.30;99.90
60353;DHT22;46196;52.970;6.954;2023-05-07T05:36:21;10.50;99.90
60353;DHT22;46196;52.970;6.954;2023-05-07T05:38:46;11.10;99.90
60353;DHT22;46196;52.970;6.954;2023-05-07T05:41:12;11.00;99.90
60353;DHT22;46196;52.970;6.954;2023-05-07T05:43:38;11.00;99.90
60353;DHT22;46196;52.970;6.954;2023-05-07T05:46:04;11.10;99.90
60353;DHT22;46196;52.970;6.954;2023-05-07T05:48:30;11.10;99.90
60353;DHT22;46196;52.970;6.954;2023-05-07T05:50:56;9.90;99.90
60353;DHT22;46196;52.970;6.954;2023-05-07T05:53:21;11.70;99.90
60353;DHT22;46196;52.970;6.954;2023-05-07T05:55:47;11.10;99.90
60353;DHT22;46196;52.970;6.954;2023-05-07T05:58:13;11.00;99.90
60353;DHT22;46196;52.970;6.954;2023-05-07T06:00:40;11.00;99.90
60353;DHT22;46196;52.970;6.954;2023-05-07T06:03:06;11.20;99.90
60353;DHT22;46196;52.970;6.954;2023-05-07T06:05:31;11.10;99.90
60353;DHT22;46196;52.970;6.954;2023-05-07T06:07:57;10.30;99.90
60353;DHT22;46196;52.970;6.954;2023-05-07T06:10:23;11.10;99.90
60353;DHT22;46196;52.970;6.954;2023-05-07T06:12:49;12.00;99.90
60353;DHT22;46196;52.970;6.954;2023-05-07T06:15:15;10.50;99.90
60353;DHT22;46196;52.970;6.954;2023-05-07T06:17:41;11.30;99.90
60353;DHT22;46196;52.970;6.954;2023-05-07T06:20:07;11.20;99.90
60353;DHT22;46196;52.970;6.954;2023-05-07T06:22:33;10.40;99.90
60353;DHT22;46196;52.970;6.954;2023-05-07T06:24:58;11.00;99.90
60353;DHT22;46196;52.970;6.954;2023-05-07T06:29:50;13.40;99.90
60353;DHT22;46196;52.970;6.954;2023-05-07T06:32:16;10.80;99.90
60353;DHT22;46196;52.970;6.954;2023-05-07T06:34:42;11.60;99.90
60353;DHT22;46196;52.970;6.954;2023-05-07T06:39:34;14.20;99.90
60353;DHT22;46196;52.970;6.954;2023-05-07T06:42:00;10.60;99.90
60353;DHT22;46196;52.970;6.954;2023-05-07T06:44:27;11.60;99.90
60353;DHT22;46196;52.970;6.954;2023-05-07T06:46:53;12.90;99.90
60353;DHT22;46196;52.970;6.954;2023-05-07T06:49:18;11.40;99.90
60353;DHT22;46196;52.970;6.954;2023-05-07T06:51:44;11.00;99.90
60353;DHT22;46196;52.970;6.954;2023-05-07T06:54:10;11.60;99.90
60353;DHT22;46196;52.970;6.954;2023-05-07T06:56:35;11.60;99.90
60353;DHT22;46196;52.970;6.954;2023-05-07T06:59:02;12.20;99.90
60353;DHT22;46196;52.970;6.954;2023-05-07T07:01:28;11.40;99.90
60353;DHT22;46196;52.970;6.954;2023-05-07T07:03:54;11.50;99.90
60353;DHT22;46196;52.970;6.954;2023-05-07T07:06:20;11.60;99.90
60353;DHT22;46196;52.970;6.954;2023-05-07T07:08:46;13.50;99.90
60353;DHT22;46196;52.970;6.954;2023-05-07T07:11:11;12.20;99.90
60353;DHT22;46196;52.970;6.954;2023-05-07T07:13:37;11.60;99.90
60353;DHT22;46196;52.970;6.954;2023-05-07T07:16:03;13.10;99.90
60353;DHT22;46196;52.970;6.954;2023-05-07T07:18:29;11.10;99.90
60353;DHT22;46196;52.970;6.954;2023-05-07T07:20:54;11.20;99.90
60353;DHT22;46196;52.970;6.954;2023-05-07T07:23:20;11.70;99.90
60353;DHT22;46196;52.970;6.954;2023-05-07T07:25:46;12.90;99.90
60353;DHT22;46196;52.970;6.954;2023-05-07T07:28:12;13.10;99.90
60353;DHT22;46196;52.970;6.954;2023-05-07T07:30:38;10.70;99.90
60353;DHT22;46196;52.970;6.954;2023-05-07T07:33:04;11.90;99.90
60353;DHT22;46196;52.970;6.954;2023-05-07T07:35:31;12.00;99.90
60353;DHT22;46196;52.970;6.954;2023-05-07T07:37:57;12.10;99.90
60353;DHT22;46196;52.970;6.954;2023-05-07T07:40:23;11.40;99.90
60353;DHT22;46196;52.970;6.954;2023-05-07T07:42:49;12.20;99.90
60353;DHT22;46196;52.970;6.954;2023-05-07T07:45:15;12.40;99.90
60353;DHT22;46196;52.970;6.954;2023-05-07T07:47:40;12.30;99.90
60353;DHT22;46196;52.970;6.954;2023-05-07T07:50:06;13.10;99.90
60353;DHT22;46196;52.970;6.954;2023-05-07T07:52:33;12.80;99.90
60353;DHT22;46196;52.970;6.954;2023-05-07T07:54:58;13.30;99.90
60353;DHT22;46196;52.970;6.954;2023-05-07T07:57:24;13.10;99.90
60353;DHT22;46196;52.970;6.954;2023-05-07T07:59:50;13.20;99.90
60353;DHT22;46196;52.970;6.954;2023-05-07T08:02:16;12.80;99.90
60353;DHT22;46196;52.970;6.954;2023-05-07T08:04:42;13.30;99.90
60353;DHT22;46196;52.970;6.954;2023-05-07T08:07:09;13.90;99.90
60353;DHT22;46196;52.970;6.954;2023-05-07T08:09:38;13.30;99.90
60353;DHT22;46196;52.970;6.954;2023-05-07T08:12:05;13.40;99.90
60353;DHT22;46196;52.970;6.954;2023-05-07T08:14:31;13.40;99.90
60353;DHT22;46196;52.970;6.954;2023-05-07T08:16:57;13.50;99.90
60353;DHT22;46196;52.970;6.954;2023-05-07T08:19:22;13.50;99.90
60353;DHT22;46196;52.970;6.954;2023-05-07T08:21:48;13.50;99.90
60353;DHT22;46196;52.970;6.954;2023-05-07T08:24:15;13.40;99.90
60353;DHT22;46196;52.970;6.954;2023-05-07T08:26:41;13.50;99.90
60353;DHT22;46196;52.970;6.954;2023-05-07T08:29:07;13.50;99.90
60353;DHT22;46196;52.970;6.954;2023-05-07T08:31:33;13.50;99.90
60353;DHT22;46196;52.970;6.954;2023-05-07T08:33:58;13.70;99.90
60353;DHT22;46196;52.970;6.954;2023-05-07T08:36:25;13.60;99.90
60353;DHT22;46196;52.970;6.954;2023-05-07T08:38:51;13.70;99.90
60353;DHT22;46196;52.970;6.954;2023-05-07T08:41:17;13.90;99.90
60353;DHT22;46196;52.970;6.954;2023-05-07T08:43:48;15.70;99.90
60353;DHT22;46196;52.970;6.954;2023-05-07T08:46:20;14.10;99.90
60353;DHT22;46196;52.970;6.954;2023-05-07T08:48:48;14.90;99.90
60353;DHT22;46196;52.970;6.954;2023-05-07T08:51:17;14.30;99.90
60353;DHT22;46196;52.970;6.954;2023-05-07T08:53:45;14.30;99.90
60353;DHT22;46196;52.970;6.954;2023-05-07T08:56:11;14.50;99.90
60353;DHT22;46196;52.970;6.954;2023-05-07T08:58:37;14.90;99.90
60353;DHT22;46196;52.970;6.954;2023-05-07T09:01:07;14.70;99.90
60353;DHT22;46196;52.970;6.954;2023-05-07T09:03:34;14.80;99.90
60353;DHT22;46196;52.970;6.954;2023-05-07T09:06:00;15.20;99.90
60353;DHT22;46196;52.970;6.954;2023-05-07T09:08:26;14.80;99.90
60353;DHT22;46196;52.970;6.954;2023-05-07T09:10:53;14.90;99.90
60353;DHT22;46196;52.970;6.954;2023-05-07T09:13:19;14.70;99.90
60353;DHT22;46196;52.970;6.954;2023-05-07T09:15:45;14.90;99.90
60353;DHT22;46196;52.970;6.954;2023-05-07T09:18:11;15.00;99.90
60353;DHT22;46196;52.970;6.954;2023-05-07T09:20:38;14.80;99.90
60353;DHT22;46196;52.970;6.954;2023-05-07T09:23:05;15.10;99.90
60353;DHT22;46196;52.970;6.954;2023-05-07T09:25:33;15.10;99.90
60353;DHT22;46196;52.970;6.954;2023-05-07T09:28:00;15.20;99.90
60353;DHT22;46196;52.970;6.954;2023-05-07T09:30:30;15.00;99.90
60353;DHT22;46196;52.970;6.954;2023-05-07T09:33:00;15.30;99.90
60353;DHT22;46196;52.970;6.954;2023-05-07T09:35:26;15.30;99.90
60353;DHT22;46196;52.970;6.954;2023-05-07T09:37:57;15.00;99.90
60353;DHT22;46196;52.970;6.954;2023-05-07T09:40:25;14.80;99.90
60353;DHT22;46196;52.970;6.954;2023-05-07T09:42:51;15.90;99.90
60353;DHT22;46196;52.970;6.954;2023-05-07T09:45:30;16.60;99.90
60353;DHT22;46196;52.970;6.954;2023-05-07T09:47:57;15.70;99.90
60353;DHT22;46196;52.970;6.954;2023-05-07T09:50:35;15.90;99.90
60353;DHT22;46196;52.970;6.954;2023-05-07T09:53:01;17.30;99.90
60353;DHT22;46196;52.970;6.954;2023-05-07T09:55:28;16.30;99.90
60353;DHT22;46196;52.970;6.954;2023-05-07T09:57:54;16.60;99.90
60353;DHT22;46196;52.970;6.954;2023-05-07T10:00:21;16.20;99.90
60353;DHT22;46196;52.970;6.954;2023-05-07T10:02:52;16.40;99.90
60353;DHT22;46196;52.970;6.954;2023-05-07T10:05:19;16.90;99.90
60353;DHT22;46196;52.970;6.954;2023-05-07T10:07:49;16.90;99.90
60353;DHT22;46196;52.970;6.954;2023-05-07T10:10:15;16.90;99.90
60353;DHT22;46196;52.970;6.954;2023-05-07T10:12:41;17.00;99.90
60353;DHT22;46196;52.970;6.954;2023-05-07T10:15:11;16.90;99.90
60353;DHT22;46196;52.970;6.954;2023-05-07T10:17:40;17.00;99.90
60353;DHT22;46196;52.970;6.954;2023-05-07T10:20:07;16.90;99.90
60353;DHT22;46196;52.970;6.954;2023-05-07T10:22:39;16.90;99.90
60353;DHT22;46196;52.970;6.954;2023-05-07T10:25:16;17.70;99.90
60353;DHT22;46196;52.970;6.954;2023-05-07T10:27:44;17.10;99.90
60353;DHT22;46196;52.970;6.954;2023-05-07T10:30:30;17.00;99.90
60353;DHT22;46196;52.970;6.954;2023-05-07T10:33:03;17.70;99.90
60353;DHT22;46196;52.970;6.954;2023-05-07T10:35:37;18.00;99.90
60353;DHT22;46196;52.970;6.954;2023-05-07T10:38:03;18.10;99.90
60353;DHT22;46196;52.970;6.954;2023-05-07T10:40:31;18.20;99.90
60353;DHT22;46196;52.970;6.954;2023-05-07T10:43:01;18.20;99.90
60353;DHT22;46196;52.970;6.954;2023-05-07T10:45:28;18.20;99.90
60353;DHT22;46196;52.970;6.954;2023-05-07T10:50:37;18.50;99.90
60353;DHT22;46196;52.970;6.954;2023-05-07T10:55:48;18.20;99.90
60353;DHT22;46196;52.970;6.954;2023-05-07T10:58:24;18.30;99.90
60353;DHT22;46196;52.970;6.954;2023-05-07T11:01:02;18.40;99.90
60353;DHT22;46196;52.970;6.954;2023-05-07T11:03:28;18.50;99.90
60353;DHT22;46196;52.970;6.954;2023-05-07T11:08:55;20.30;99.90
60353;DHT22;46196;52.970;6.954;2023-05-07T11:11:47;19.10;99.90
60353;DHT22;46196;52.970;6.954;2023-05-07T11:14:14;20.40;99.90
60353;DHT22;46196;52.970;6.954;2023-05-07T11:17:03;19.30;99.90
60353;DHT22;46196;52.970;6.954;2023-05-07T11:19:47;19.30;99.90
60353;DHT22;46196;52.970;6.954;2023-05-07T11:25:06;19.30;99.90
60353;DHT22;46196;52.970;6.954;2023-05-07T11:27:32;19.30;99.90
60353;DHT22;46196;52.970;6.954;2023-05-07T11:29:58;19.10;99.90
60353;DHT22;46196;52.970;6.954;2023-05-07T11:32:26;19.10;99.90
60353;DHT22;46196;52.970;6.954;2023-05-07T11:34:52;19.30;99.90
60353;DHT22;46196;52.970;6.954;2023-05-07T11:37:19;19.40;99.90
60353;DHT22;46196;52.970;6.954;2023-05-07T11:39:45;19.50;99.90
60353;DHT22;46196;52.970;6.954;2023-05-07T11:42:30;19.60;99.90
60353;DHT22;46196;52.970;6.954;2023-05-07T11:44:56;19.80;99.90
60353;DHT22;46196;52.970;6.954;2023-05-07T11:47:22;19.80;99.90
60353;DHT22;46196;52.970;6.954;2023-05-07T11:49:50;19.70;99.90
60353;DHT22;46196;52.970;6.954;2023-05-07T11:52:16;19.80;99.90
60353;DHT22;46196;52.970;6.954;2023-05-07T11:54:52;19.80;99.90
60353;DHT22;46196;52.970;6.954;2023-05-07T11:57:18;19.80;99.90
60353;DHT22;46196;52.970;6.954;2023-05-07T11:59:45;19.80;99.90
60353;DHT22;46196;52.970;6.954;2023-05-07T12:02:15;19.80;99.90
60353;DHT22;46196;52.970;6.954;2023-05-07T12:04:41;19.80;99.90
60353;DHT22;46196;52.970;6.954;2023-05-07T12:07:17;19.90;99.90
60353;DHT22;46196;52.970;6.954;2023-05-07T12:09:44;20.40;99.90
60353;DHT22;46196;52.970;6.954;2023-05-07T12:12:10;22.40;99.90
60353;DHT22;46196;52.970;6.954;2023-05-07T12:14:40;20.60;99.90
60353;DHT22;46196;52.970;6.954;2023-05-07T12:17:07;20.80;99.90
60353;DHT22;46196;52.970;6.954;2023-05-07T12:19:34;20.90;99.90
60353;DHT22;46196;52.970;6.954;2023-05-07T12:22:01;21.10;99.90
60353;DHT22;46196;52.970;6.954;2023-05-07T12:24:26;20.90;99.90
60353;DHT22;46196;52.970;6.954;2023-05-07T12:26:53;20.90;99.90
60353;DHT22;46196;52.970;6.954;2023-05-07T12:29:21;20.50;99.90
60353;DHT22;46196;52.970;6.954;2023-05-07T12:31:49;20.70;99.90
60353;DHT22;46196;52.970;6.954;2023-05-07T12:34:15;20.80;99.90
60353;DHT22;46196;52.970;6.954;2023-05-07T12:36:41;20.80;99.90
60353;DHT22;46196;52.970;6.954;2023-05-07T12:39:08;20.90;99.90
60353;DHT22;46196;52.970;6.954;2023-05-07T12:41:56;21.00;99.90
60353;DHT22;46196;52.970;6.954;2023-05-07T12:44:35;21.30;99.90
60353;DHT22;46196;52.970;6.954;2023-05-07T12:47:02;22.10;99.90
60353;DHT22;46196;52.970;6.954;2023-05-07T12:49:28;21.20;99.90
60353;DHT22;46196;52.970;6.954;2023-05-07T12:51:54;21.10;99.90
60353;DHT22;46196;52.970;6.954;2023-05-07T12:54:30;21.20;99.90
60353;DHT22;46196;52.970;6.954;2023-05-07T12:59:39;21.40;99.90
60353;DHT22;46196;52.970;6.954;2023-05-07T13:02:05;21.00;99.90
60353;DHT22;46196;52.970;6.954;2023-05-07T13:04:31;21.70;99.90
60353;DHT22;46196;52.970;6.954;2023-05-07T13:06:58;21.70;99.90
60353;DHT22;46196;52.970;6.954;2023-05-07T13:09:23;21.80;99.90
60353;DHT22;46196;52.970;6.954;2023-05-07T13:11:49;21.80;99.90
60353;DHT22;46196;52.970;6.954;2023-05-07T13:14:15;21.90;99.90
60353;DHT22;46196;52.970;6.954;2023-05-07T13:16:41;21.90;99.90
60353;DHT22;46196;52.970;6.954;2023-05-07T13:19:06;21.90;99.90
60353;DHT22;46196;52.970;6.954;2023-05-07T13:21:32;22.10;99.90
60353;DHT22;46196;52.970;6.954;2023-05-07T13:23:58;22.10;99.90
60353;DHT22;46196;52.970;6.954;2023-05-07T13:26:24;22.10;99.90
60353;DHT22;46196;52.970;6.954;2023-05-07T13:28:51;22.10;99.90
60353;DHT22;46196;52.970;6.954;2023-05-07T13:31:17;22.80;99.90
60353;DHT22;46196;52.970;6.954;2023-05-07T13:33:43;20.20;99.90
60353;DHT22;46196;52.970;6.954;2023-05-07T13:36:09;21.70;99.90
60353;DHT22;46196;52.970;6.954;2023-05-07T13:38:35;21.70;99.90
60353;DHT22;46196;52.970;6.954;2023-05-07T13:41:01;21.70;99.90
60353;DHT22;46196;52.970;6.954;2023-05-07T13:43:26;21.70;99.90
60353;DHT22;46196;52.970;6.954;2023-05-07T13:45:52;21.80;99.90
60353;DHT22;46196;52.970;6.954;2023-05-07T13:48:18;21.80;99.90
60353;DHT22;46196;52.970;6.954;2023-05-07T13:50:44;21.70;99.90
60353;DHT22;46196;52.970;6.954;2023-05-07T13:53:09;21.70;99.90
60353;DHT22;46196;52.970;6.954;2023-05-07T13:55:35;21.60;99.90
60353;DHT22;46196;52.970;6.954;2023-05-07T13:58:02;21.70;99.90
60353;DHT22;46196;52.970;6.954;2023-05-07T14:00:29;21.70;99.90
60353;DHT22;46196;52.970;6.954;2023-05-07T14:02:56;21.70;99.90
60353;DHT22;46196;52.970;6.954;2023-05-07T14:05:22;21.60;99.90
60353;DHT22;46196;52.970;6.954;2023-05-07T14:07:54;21.60;99.90
60353;DHT22;46196;52.970;6.954;2023-05-07T14:10:20;21.60;99.90
60353;DHT22;46196;52.970;6.954;2023-05-07T14:12:46;21.80;99.90
60353;DHT22;46196;52.970;6.954;2023-05-07T14:15:12;22.00;99.90
60353;DHT22;46196;52.970;6.954;2023-05-07T14:17:38;21.90;99.90
60353;DHT22;46196;52.970;6.954;2023-05-07T14:20:04;22.10;99.90
60353;DHT22;46196;52.970;6.954;2023-05-07T14:22:32;22.20;99.90
60353;DHT22;46196;52.970;6.954;2023-05-07T14:24:57;22.30;99.90
60353;DHT22;46196;52.970;6.954;2023-05-07T14:27:23;22.30;99.90
60353;DHT22;46196;52.970;6.954;2023-05-07T14:29:49;22.10;99.90
60353;DHT22;46196;52.970;6.954;2023-05-07T14:32:19;22.10;99.90
60353;DHT22;46196;52.970;6.954;2023-05-07T14:34:45;22.10;99.90
60353;DHT22;46196;52.970;6.954;2023-05-07T14:37:12;21.90;99.90
60353;DHT22;46196;52.970;6.954;2023-05-07T14:39:38;21.90;99.90
60353;DHT22;46196;52.970;6.954;2023-05-07T14:42:04;21.90;99.90
60353;DHT22;46196;52.970;6.954;2023-05-07T14:44:29;21.90;99.90
60353;DHT22;46196;52.970;6.954;2023-05-07T14:46:56;21.80;99.90
60353;DHT22;46196;52.970;6.954;2023-05-07T14:49:22;21.80;99.90
60353;DHT22;46196;52.970;6.954;2023-05-07T14:51:48;21.60;99.90
60353;DHT22;46196;52.970;6.954;2023-05-07T14:54:14;21.40;99.90
60353;DHT22;46196;52.970;6.954;2023-05-07T14:56:40;20.40;99.90
60353;DHT22;46196;52.970;6.954;2023-05-07T14:59:06;21.00;99.90
60353;DHT22;46196;52.970;6.954;2023-05-07T15:01:33;20.60;99.90
60353;DHT22;46196;52.970;6.954;2023-05-07T15:03:59;20.60;99.90
60353;DHT22;46196;52.970;6.954;2023-05-07T15:06:25;20.30;99.90
60353;DHT22;46196;52.970;6.954;2023-05-07T15:08:52;20.60;99.90
60353;DHT22;46196;52.970;6.954;2023-05-07T15:11:18;20.60;99.90
60353;DHT22;46196;52.970;6.954;2023-05-07T15:13:43;20.50;99.90
60353;DHT22;46196;52.970;6.954;2023-05-07T15:16:09;20.50;99.90
60353;DHT22;46196;52.970;6.954;2023-05-07T15:18:35;21.30;99.90
60353;DHT22;46196;52.970;6.954;2023-05-07T15:21:00;20.50;99.90
60353;DHT22;46196;52.970;6.954;2023-05-07T15:23:26;19.90;99.90
60353;DHT22;46196;52.970;6.954;2023-05-07T15:25:52;19.90;99.90
60353;DHT22;46196;52.970;6.954;2023-05-07T15:28:19;19.90;99.90
60353;DHT22;46196;52.970;6.954;2023-05-07T15:30:44;19.80;99.90
60353;DHT22;46196;52.970;6.954;2023-05-07T15:33:10;19.20;99.90
60353;DHT22;46196;52.970;6.954;2023-05-07T15:35:36;19.90;99.90
60353;DHT22;46196;52.970;6.954;2023-05-07T15:38:02;20.30;99.90
60353;DHT22;46196;52.970;6.954;2023-05-07T15:40:28;19.70;99.90
60353;DHT22;46196;52.970;6.954;2023-05-07T15:42:55;19.90;99.90
60353;DHT22;46196;52.970;6.954;2023-05-07T15:45:22;20.20;99.90
60353;DHT22;46196;52.970;6.954;2023-05-07T15:47:48;20.20;99.90
60353;DHT22;46196;52.970;6.954;2023-05-07T15:50:14;20.30;99.90
60353;DHT22;46196;52.970;6.954;2023-05-07T15:52:40;20.50;99.90
60353;DHT22;46196;52.970;6.954;2023-05-07T15:55:07;20.60;99.90
60353;DHT22;46196;52.970;6.954;2023-05-07T15:57:34;20.20;99.90
60353;DHT22;46196;52.970;6.954;2023-05-07T16:00:01;21.10;99.90
60353;DHT22;46196;52.970;6.954;2023-05-07T16:02:28;21.20;99.90
60353;DHT22;46196;52.970;6.954;2023-05-07T16:04:53;20.50;99.90
60353;DHT22;46196;52.970;6.954;2023-05-07T16:07:19;20.30;99.90